Airfield :
LOGIN :

Register | Disclaimer

   EN    FR    IT 

 










Legend :    VFR   Marginal VFR   IFR   Intensive IFR   Very Intensive IFR
Visi :
Ceiling :
>= 8 km
>= 3000ft
5 to 8 km
1000 to 3000 ft
1500m to 5 km
500 to 1000 ft
800 to 1500m
200 to 500 ft
< 800m
< 200 ft
Symbols :   Thunderstorms  Fog  Heavy snow  Heavy precipitations  Wind > 20 kt
SIGMETs :     Misc.  Thunderstorms  Icing  Turbulence  Mountain Waves  Volcanic Ashes







- Airport Elevation : 2096 ft
- IATA code : AUR
- Download approach charts


LFLW - Aurillac

CURRENT METAR :
  • 240830Z AUTO 10007KT 080V140 CAVOK 19/09 Q1020 NOSIG

EXPIRED METARs :
  • 240800Z AUTO 12008KT CAVOK 18/08 Q1020 NOSIG
  • 240730Z AUTO 09005KT 060V140 CAVOK 17/08 Q1020 NOSIG
  • 240700Z AUTO 09006KT CAVOK 17/07 Q1020 NOSIG
  • 240630Z AUTO 10006KT CAVOK 15/07 Q1020 NOSIG
  • 240600Z AUTO 10004KT CAVOK 14/07 Q1020 NOSIG

TAF TAF LFLW
Valid from the 24 at 09:00 until the 24 at 18:00 UTC


240800Z 2409/2418 09005KT CAVOK
BECMG 2411/2414 35006KT
No reported NOTAMs for that airfield.



MET'MAP, your aeronautical weather chart ! - Copyright ORBIFLY December 2007 - Disclaimer

ORBIFLY MET'MAP TEAM :

Programming & Development : Alexandra Zaïnal
Concept & Development : Baudouin d'Aumeries
Co-Development & Prog : Marc-Olivier Méhu
Technical & hardware support : Manuel Goepfert

Contact : metmap@orbifly.com




SOURCES & CREDITS :

   NOAA